createdAt,value
2017-03-28T00:01:00.945Z,5.70
2017-03-28T00:02:05.740Z,6.35
2017-03-28T00:03:11.246Z,5.73
2017-03-28T00:04:16.995Z,5.38
2017-03-28T00:05:22.593Z,6.65
2017-03-28T00:06:28.262Z,6.18
2017-03-28T00:07:34.601Z,6.10
2017-03-28T00:08:39.301Z,5.97
2017-03-28T00:09:44.813Z,6.23
2017-03-28T00:10:50.351Z,6.22
2017-03-28T00:11:55.905Z,7.77
2017-03-28T00:13:01.604Z,5.68
2017-03-28T00:14:06.573Z,7.02
2017-03-28T00:15:12.906Z,6.23
2017-03-28T00:16:18.483Z,5.27
2017-03-28T00:17:23.459Z,9.27
2017-03-28T00:18:28.920Z,5.68
2017-03-28T00:19:34.439Z,6.53
2017-03-28T00:20:40.103Z,6.47
2017-03-28T00:21:44.997Z,10.10
2017-03-28T00:22:50.477Z,9.12
2017-03-28T00:23:55.404Z,6.38
2017-03-28T00:25:01.033Z,13.62
2017-03-28T00:26:05.820Z,6.58
2017-03-28T00:27:11.497Z,5.63
2017-03-28T00:28:17.978Z,6.30
2017-03-28T00:29:23.585Z,6.10
2017-03-28T00:30:29.533Z,6.18
2017-03-28T00:31:35.177Z,7.37
2017-03-28T00:32:40.013Z,6.03
2017-03-28T00:33:44.694Z,7.17
2017-03-28T00:34:51.412Z,6.67
2017-03-28T00:35:56.840Z,6.55
2017-03-28T00:37:04.229Z,6.65
2017-03-28T00:38:09.090Z,7.02
2017-03-28T00:39:15.560Z,6.80
2017-03-28T00:40:20.313Z,6.93
2017-03-28T00:41:26.530Z,6.68
2017-03-28T00:42:31.629Z,5.52
2017-03-28T00:43:37.237Z,5.35
2017-03-28T00:44:42.805Z,6.07
2017-03-28T00:45:47.532Z,6.10
2017-03-28T00:46:53.921Z,5.95
2017-03-28T00:47:59.590Z,5.67
2017-03-28T00:49:04.410Z,5.10
2017-03-28T00:50:09.918Z,5.30
2017-03-28T00:51:19.801Z,4.93
2017-03-28T00:52:24.589Z,5.32
2017-03-28T00:53:30.021Z,4.92
2017-03-28T00:54:35.565Z,5.87
2017-03-28T00:55:41.313Z,10.20
2017-03-28T00:56:47.729Z,8.83
2017-03-28T00:57:52.578Z,7.70
2017-03-28T00:58:58.142Z,7.47
2017-03-28T01:00:03.090Z,8.28
2017-03-28T01:01:09.287Z,8.08
2017-03-28T01:02:14.864Z,9.78
2017-03-28T01:03:19.725Z,5.37
2017-03-28T01:04:26.118Z,5.62
2017-03-28T01:05:30.834Z,7.45
2017-03-28T01:06:36.466Z,8.98
2017-03-28T01:07:42.722Z,7.90
2017-03-28T01:08:47.853Z,8.43
2017-03-28T01:09:55.049Z,7.50
2017-03-28T01:10:59.916Z,8.30
2017-03-28T01:12:06.328Z,6.43
2017-03-28T01:13:11.893Z,6.40
2017-03-28T01:14:17.684Z,7.00
2017-03-28T01:15:23.525Z,5.65
2017-03-28T01:16:29.068Z,6.08
2017-03-28T01:17:35.414Z,9.57
2017-03-28T01:18:41.112Z,8.05
2017-03-28T01:19:45.940Z,9.12
2017-03-28T01:20:50.842Z,10.18
2017-03-28T01:21:57.226Z,6.93
2017-03-28T01:23:01.884Z,6.47
2017-03-28T01:24:08.332Z,13.60
2017-03-28T01:25:14.043Z,8.75
2017-03-28T01:26:20.661Z,9.07
2017-03-28T01:27:25.339Z,8.97
2017-03-28T01:28:30.917Z,12.82
2017-03-28T01:29:36.512Z,11.15
2017-03-28T01:30:42.101Z,8.55
2017-03-28T01:31:47.045Z,8.70
2017-03-28T01:32:52.523Z,4.92
2017-03-28T01:33:57.962Z,7.95
2017-03-28T01:35:03.583Z,4.65
2017-03-28T01:36:09.260Z,4.58
2017-03-28T01:37:16.584Z,5.10
2017-03-28T01:38:21.492Z,4.87
2017-03-28T01:39:26.895Z,4.88
2017-03-28T01:40:31.676Z,4.80
2017-03-28T01:41:37.372Z,4.33
2017-03-28T01:42:43.027Z,4.67
2017-03-28T01:43:49.265Z,5.35
2017-03-28T01:44:55.742Z,5.93
2017-03-28T01:46:00.476Z,5.15
2017-03-28T01:47:06.847Z,6.93
2017-03-28T01:48:13.118Z,7.80
2017-03-28T01:49:18.196Z,5.20
2017-03-28T01:50:23.674Z,6.33
2017-03-28T01:51:28.441Z,5.38
2017-03-28T01:52:34.781Z,4.77
2017-03-28T01:53:40.387Z,4.37
2017-03-28T01:54:46.860Z,4.40
2017-03-28T01:55:52.428Z,4.30
2017-03-28T01:56:57.165Z,4.98
2017-03-28T01:58:02.822Z,4.12
2017-03-28T01:59:08.638Z,4.77
2017-03-28T02:00:14.285Z,4.13
2017-03-28T02:01:19.709Z,4.57
2017-03-28T02:02:26.273Z,4.02
2017-03-28T02:03:31.937Z,4.58
2017-03-28T02:04:38.341Z,4.73
2017-03-28T02:05:44.177Z,4.35
2017-03-28T02:06:49.918Z,3.65
2017-03-28T02:07:55.413Z,4.27
2017-03-28T02:09:01.089Z,4.08
2017-03-28T02:10:07.708Z,4.37
2017-03-28T02:11:13.413Z,4.57
2017-03-28T02:12:18.381Z,4.37
2017-03-28T02:13:23.065Z,4.25
2017-03-28T02:14:27.762Z,4.33
2017-03-28T02:15:32.552Z,4.32
2017-03-28T02:16:38.268Z,4.25
2017-03-28T02:17:43.762Z,4.48
2017-03-28T02:18:49.446Z,3.85
2017-03-28T02:19:55.764Z,4.17
2017-03-28T02:21:00.745Z,4.88
2017-03-28T02:22:06.982Z,4.15
2017-03-28T02:23:11.729Z,4.85
2017-03-28T02:24:17.405Z,4.32
2017-03-28T02:25:23.165Z,4.83
2017-03-28T02:26:28.677Z,5.23
2017-03-28T02:27:34.101Z,4.17
2017-03-28T02:28:40.537Z,5.35
2017-03-28T02:29:45.333Z,4.70
2017-03-28T02:30:50.964Z,4.47
2017-03-28T02:31:56.547Z,4.70
2017-03-28T02:33:02.060Z,5.35
2017-03-28T02:34:08.436Z,5.28
2017-03-28T02:35:13.333Z,4.83
2017-03-28T02:36:19.003Z,5.57
2017-03-28T02:37:25.712Z,5.27
2017-03-28T02:38:30.516Z,4.77
2017-03-28T02:39:35.177Z,4.10
2017-03-28T02:40:40.718Z,4.70
2017-03-28T02:41:45.478Z,4.48
2017-03-28T02:42:51.913Z,4.65
2017-03-28T02:43:56.741Z,3.63
2017-03-28T02:45:03.138Z,4.43
2017-03-28T02:46:08.736Z,5.07
2017-03-28T02:47:13.889Z,4.28
2017-03-28T02:48:20.413Z,4.33
2017-03-28T02:49:25.265Z,4.45
2017-03-28T02:50:30.899Z,4.30
2017-03-28T02:51:35.577Z,4.38
2017-03-28T02:52:41.034Z,3.95
2017-03-28T02:53:45.855Z,4.33
2017-03-28T02:54:51.520Z,5.02
2017-03-28T02:55:57.940Z,4.17
2017-03-28T02:57:03.636Z,4.08
2017-03-28T02:58:08.617Z,4.35
2017-03-28T02:59:14.917Z,4.63
2017-03-28T03:00:19.745Z,4.10
2017-03-28T03:01:25.421Z,4.70
2017-03-28T03:02:31.034Z,4.58
2017-03-28T03:03:36.553Z,4.98
2017-03-28T03:04:42.214Z,4.78
2017-03-28T03:05:47.044Z,4.98
2017-03-28T03:06:53.420Z,4.38
2017-03-28T03:07:58.400Z,4.43
2017-03-28T03:09:04.194Z,4.53
2017-03-28T03:10:10.305Z,5.05
2017-03-28T03:11:15.109Z,4.15
2017-03-28T03:12:20.651Z,3.95
2017-03-28T03:13:27.061Z,4.12
2017-03-28T03:14:32.480Z,5.18
2017-03-28T03:15:38.113Z,3.97
2017-03-28T03:16:42.944Z,5.13
2017-03-28T03:17:47.564Z,5.22
2017-03-28T03:18:52.283Z,4.82
2017-03-28T03:19:58.873Z,4.70
2017-03-28T03:21:04.601Z,4.75
2017-03-28T03:22:09.274Z,4.77
2017-03-28T03:23:14.873Z,5.08
2017-03-28T03:24:20.511Z,4.85
2017-03-28T03:25:25.242Z,4.53
2017-03-28T03:26:29.952Z,4.22
2017-03-28T03:27:36.358Z,4.80
2017-03-28T03:28:41.976Z,5.15
2017-03-28T03:29:47.280Z,4.60
2017-03-28T03:30:53.289Z,4.73
2017-03-28T03:31:58.141Z,5.37
2017-03-28T03:33:04.410Z,3.90
2017-03-28T03:34:09.294Z,4.87
2017-03-28T03:35:14.921Z,4.62
2017-03-28T03:36:21.297Z,6.00
2017-03-28T03:37:27.062Z,5.53
2017-03-28T03:38:32.001Z,5.60
2017-03-28T03:39:37.765Z,6.05
2017-03-28T03:40:44.057Z,5.32
2017-03-28T03:41:48.816Z,5.07
2017-03-28T03:42:54.154Z,5.70
2017-03-28T03:44:00.488Z,5.20
2017-03-28T03:45:06.092Z,5.10
2017-03-28T03:46:11.761Z,5.37
2017-03-28T03:47:16.517Z,5.23
2017-03-28T03:48:22.260Z,5.48
2017-03-28T03:49:28.664Z,4.98
2017-03-28T03:50:33.614Z,5.50
2017-03-28T03:51:39.134Z,4.78
2017-03-28T03:52:43.938Z,4.55
2017-03-28T03:53:49.489Z,4.18
2017-03-28T03:54:55.026Z,4.90
2017-03-28T03:56:00.628Z,4.68
2017-03-28T03:57:06.144Z,4.30
2017-03-28T03:58:11.026Z,4.70
2017-03-28T03:59:16.812Z,5.22
2017-03-28T04:00:22.825Z,5.67
2017-03-28T04:01:28.654Z,4.80
2017-03-28T04:02:33.525Z,5.25
2017-03-28T04:03:39.158Z,4.48
2017-03-28T04:04:44.700Z,5.12
2017-03-28T04:05:49.516Z,4.38
2017-03-28T04:06:54.249Z,4.47
2017-03-28T04:07:59.741Z,4.37
2017-03-28T04:09:05.193Z,4.92
2017-03-28T04:10:11.839Z,5.97
2017-03-28T04:11:16.788Z,4.58
2017-03-28T04:12:22.444Z,5.03
2017-03-28T04:13:27.947Z,4.65
2017-03-28T04:14:33.666Z,4.87
2017-03-28T04:15:40.077Z,4.08
2017-03-28T04:16:46.429Z,4.45
2017-03-28T04:17:51.260Z,4.47
2017-03-28T04:18:56.101Z,4.87
2017-03-28T04:20:01.833Z,4.20
2017-03-28T04:21:07.401Z,5.27
2017-03-28T04:22:13.824Z,4.87
2017-03-28T04:23:18.701Z,4.82
2017-03-28T04:24:24.246Z,5.20
2017-03-28T04:25:29.780Z,5.65
2017-03-28T04:26:34.594Z,5.53
2017-03-28T04:27:41.164Z,5.48
2017-03-28T04:28:46.931Z,5.88
2017-03-28T04:29:52.426Z,6.87
2017-03-28T04:30:57.289Z,7.93
2017-03-28T04:32:03.077Z,10.87
2017-03-28T04:33:08.837Z,9.07
2017-03-28T04:34:14.239Z,6.22
2017-03-28T04:35:20.076Z,5.13
2017-03-28T04:36:26.132Z,5.08
2017-03-28T04:37:32.826Z,5.40
2017-03-28T04:38:37.786Z,5.75
2017-03-28T04:39:44.037Z,5.53
2017-03-28T04:40:49.800Z,4.65
2017-03-28T04:41:54.572Z,5.68
2017-03-28T04:43:01.017Z,5.23
2017-03-28T04:44:06.915Z,5.15
2017-03-28T04:45:11.745Z,4.82
2017-03-28T04:46:17.311Z,5.13
2017-03-28T04:47:22.705Z,6.25
2017-03-28T04:48:28.222Z,5.53
2017-03-28T04:49:33.785Z,5.05
2017-03-28T04:50:38.668Z,5.08
2017-03-28T04:51:45.004Z,4.93
2017-03-28T04:52:49.698Z,5.10
2017-03-28T04:53:56.029Z,4.63
2017-03-28T04:55:01.741Z,5.28
2017-03-28T04:56:07.364Z,5.27
2017-03-28T04:57:12.185Z,5.37
2017-03-28T04:58:17.987Z,5.78
2017-03-28T04:59:24.317Z,6.83
2017-03-28T05:00:30.806Z,6.75
2017-03-28T05:01:36.397Z,7.60
2017-03-28T05:02:41.505Z,6.15
2017-03-28T05:03:46.729Z,5.57
2017-03-28T05:04:51.496Z,6.17
2017-03-28T05:05:57.838Z,6.05
2017-03-28T05:07:03.241Z,5.73
2017-03-28T05:08:08.873Z,5.73
2017-03-28T05:09:14.749Z,6.62
2017-03-28T05:10:21.525Z,6.17
2017-03-28T05:11:27.112Z,6.37
2017-03-28T05:12:31.952Z,6.13
2017-03-28T05:13:37.619Z,6.58
2017-03-28T05:14:44.125Z,6.43
2017-03-28T05:15:49.701Z,6.30
2017-03-28T05:16:54.436Z,6.25
2017-03-28T05:18:00.055Z,6.52
2017-03-28T05:19:05.521Z,6.40
2017-03-28T05:20:11.736Z,6.22
2017-03-28T05:21:16.744Z,6.42
2017-03-28T05:22:22.977Z,7.00
2017-03-28T05:23:27.854Z,6.75
2017-03-28T05:24:34.201Z,6.57
2017-03-28T05:25:39.029Z,5.97
2017-03-28T05:26:45.372Z,6.47
2017-03-28T05:27:50.189Z,6.33
2017-03-28T05:28:55.813Z,6.87
2017-03-28T05:30:00.519Z,6.78
2017-03-28T05:31:06.008Z,6.82
2017-03-28T05:32:11.451Z,6.63
2017-03-28T05:33:17.019Z,6.95
2017-03-28T05:34:22.580Z,8.00
2017-03-28T05:35:28.136Z,8.77
2017-03-28T05:36:33.816Z,7.87
2017-03-28T05:37:40.129Z,7.63
2017-03-28T05:38:44.911Z,7.37
2017-03-28T05:39:50.553Z,6.27
2017-03-28T05:40:55.276Z,6.42
2017-03-28T05:42:01.704Z,5.80
2017-03-28T05:43:07.229Z,5.57
2017-03-28T05:44:12.001Z,5.58
2017-03-28T05:45:17.649Z,5.70
2017-03-28T05:46:24.109Z,5.60
2017-03-28T05:47:28.778Z,5.55
2017-03-28T05:48:34.429Z,5.53
2017-03-28T05:49:39.944Z,5.90
2017-03-28T05:50:46.297Z,5.72
2017-03-28T05:51:51.974Z,6.38
2017-03-28T05:52:56.999Z,6.12
2017-03-28T05:54:03.253Z,5.90
2017-03-28T05:55:08.140Z,6.18
2017-03-28T05:56:13.668Z,6.67
2017-03-28T05:57:19.952Z,6.87
2017-03-28T05:58:24.801Z,7.93
2017-03-28T05:59:30.490Z,8.50
2017-03-28T06:00:36.088Z,8.05
2017-03-28T06:01:41.592Z,6.92
2017-03-28T06:02:46.447Z,7.30
2017-03-28T06:03:52.854Z,7.17
2017-03-28T06:04:57.621Z,6.18
2017-03-28T06:06:03.117Z,5.50
2017-03-28T06:07:08.733Z,6.23
2017-03-28T06:08:14.317Z,5.57
2017-03-28T06:09:19.886Z,6.07
2017-03-28T06:10:25.388Z,5.77
2017-03-28T06:11:30.344Z,5.33
2017-03-28T06:12:36.578Z,5.78
2017-03-28T06:13:41.213Z,4.87
2017-03-28T06:14:46.765Z,5.07
2017-03-28T06:15:52.373Z,5.88
2017-03-28T06:16:57.961Z,5.55
2017-03-28T06:18:03.709Z,6.05
2017-03-28T06:19:09.341Z,6.42
2017-03-28T06:20:14.985Z,5.77
2017-03-28T06:21:19.790Z,5.05
2017-03-28T06:22:25.260Z,6.05
2017-03-28T06:23:30.805Z,6.15
2017-03-28T06:24:36.403Z,6.25
2017-03-28T06:25:42.074Z,6.70
2017-03-28T06:26:47.717Z,6.47
2017-03-28T06:27:54.053Z,6.07
2017-03-28T06:28:59.802Z,5.48
2017-03-28T06:30:04.665Z,6.38
2017-03-28T06:31:10.784Z,5.77
2017-03-28T06:32:15.998Z,5.82
2017-03-28T06:33:21.528Z,7.30
2017-03-28T06:34:27.157Z,6.58
2017-03-28T06:35:32.757Z,6.57
2017-03-28T06:36:37.594Z,6.45
2017-03-28T06:37:43.905Z,6.98
2017-03-28T06:38:49.585Z,7.28
2017-03-28T06:39:55.246Z,6.33
2017-03-28T06:41:01.641Z,6.88
2017-03-28T06:42:07.178Z,6.28
2017-03-28T06:43:12.062Z,6.12
2017-03-28T06:44:18.381Z,5.20
2017-03-28T06:45:23.224Z,5.67
2017-03-28T06:46:29.417Z,5.93
2017-03-28T06:47:35.097Z,5.78
2017-03-28T06:48:40.009Z,5.47
2017-03-28T06:49:45.577Z,6.73
2017-03-28T06:50:51.193Z,5.87
2017-03-28T06:51:56.616Z,7.48
2017-03-28T06:53:02.115Z,6.70
2017-03-28T06:54:07.857Z,6.20
2017-03-28T06:55:13.457Z,5.87
2017-03-28T06:56:19.873Z,6.18
2017-03-28T06:57:24.593Z,6.90
2017-03-28T06:58:30.987Z,13.90
2017-03-28T06:59:35.920Z,9.83
2017-03-28T07:00:42.401Z,7.15
2017-03-28T07:01:47.960Z,6.80
2017-03-28T07:02:53.636Z,5.38
2017-03-28T07:03:59.178Z,6.00
2017-03-28T07:05:03.937Z,4.55
2017-03-28T07:06:10.346Z,4.63
2017-03-28T07:07:15.980Z,4.45
2017-03-28T07:08:21.709Z,4.65
2017-03-28T07:09:27.224Z,5.53
2017-03-28T07:10:33.045Z,5.00
2017-03-28T07:11:38.377Z,4.62
2017-03-28T07:12:43.966Z,5.02
2017-03-28T07:13:49.418Z,4.85
2017-03-28T07:14:55.161Z,5.83
2017-03-28T07:16:01.610Z,5.40
2017-03-28T07:17:06.352Z,4.67
2017-03-28T07:18:12.804Z,5.42
2017-03-28T07:19:18.497Z,4.62
2017-03-28T07:20:23.997Z,5.02
2017-03-28T07:21:29.064Z,4.60
2017-03-28T07:22:34.673Z,4.75
2017-03-28T07:23:39.449Z,4.90
2017-03-28T07:24:45.881Z,6.55
2017-03-28T07:25:51.572Z,6.50
2017-03-28T07:26:57.203Z,6.35
2017-03-28T07:28:02.779Z,7.25
2017-03-28T07:29:07.457Z,6.20
2017-03-28T07:30:12.205Z,6.15
2017-03-28T07:31:16.912Z,5.32
2017-03-28T07:32:22.778Z,4.90
2017-03-28T07:33:28.254Z,5.22
2017-03-28T07:34:32.919Z,5.68
2017-03-28T07:35:38.554Z,6.02
2017-03-28T07:36:44.164Z,5.40
2017-03-28T07:37:51.447Z,5.00
2017-03-28T07:38:56.262Z,4.83
2017-03-28T07:40:02.009Z,4.93
2017-03-28T07:41:08.391Z,5.17
2017-03-28T07:42:13.842Z,4.78
2017-03-28T07:43:18.801Z,4.78
2017-03-28T07:44:25.118Z,4.62
2017-03-28T07:45:30.786Z,5.83
2017-03-28T07:46:35.485Z,4.33
2017-03-28T07:47:41.808Z,4.40
2017-03-28T07:48:46.806Z,5.00
2017-03-28T07:49:52.421Z,4.67
2017-03-28T07:50:58.104Z,5.07
2017-03-28T07:52:02.880Z,5.02
2017-03-28T07:53:08.352Z,4.62
2017-03-28T07:54:13.353Z,4.77
2017-03-28T07:55:19.613Z,4.18
2017-03-28T07:56:24.489Z,4.70
2017-03-28T07:57:30.763Z,4.33
2017-03-28T07:58:36.402Z,4.10
2017-03-28T07:59:41.342Z,4.15
2017-03-28T08:00:47.617Z,4.73
2017-03-28T08:01:52.277Z,4.33
2017-03-28T08:02:57.846Z,4.47
2017-03-28T08:04:04.213Z,4.82
2017-03-28T08:05:09.133Z,4.95
2017-03-28T08:06:14.704Z,3.95
2017-03-28T08:07:21.099Z,3.67
2017-03-28T08:08:26.625Z,4.30
2017-03-28T08:09:31.368Z,4.78
2017-03-28T08:10:36.901Z,4.73
2017-03-28T08:11:42.500Z,5.02
2017-03-28T08:12:48.105Z,4.32
2017-03-28T08:13:53.092Z,4.27
2017-03-28T08:14:58.719Z,4.33
2017-03-28T08:16:05.357Z,3.88
2017-03-28T08:17:10.144Z,4.33
2017-03-28T08:18:15.688Z,4.37
2017-03-28T08:19:22.068Z,4.23
2017-03-28T08:20:28.502Z,4.63
2017-03-28T08:21:34.182Z,4.50
2017-03-28T08:22:39.764Z,4.28
2017-03-28T08:23:44.704Z,4.20
2017-03-28T08:24:50.961Z,4.45
2017-03-28T08:25:56.734Z,4.30
2017-03-28T08:27:01.605Z,3.92
2017-03-28T08:28:07.160Z,4.52
2017-03-28T08:29:12.829Z,4.33
2017-03-28T08:30:17.784Z,3.43
2017-03-28T08:31:23.920Z,4.10
2017-03-28T08:32:28.757Z,4.92
2017-03-28T08:33:35.086Z,4.37
2017-03-28T08:34:39.893Z,4.33
2017-03-28T08:35:46.208Z,4.08
2017-03-28T08:36:51.769Z,4.57
2017-03-28T08:37:58.280Z,4.72
2017-03-28T08:39:09.024Z,3.92
2017-03-28T08:40:13.917Z,4.65
2017-03-28T08:41:20.208Z,4.10
2017-03-28T08:42:25.650Z,4.15
2017-03-28T08:43:31.460Z,4.92
2017-03-28T08:44:36.188Z,4.43
2017-03-28T08:45:40.934Z,6.13
2017-03-28T08:46:47.397Z,4.37
2017-03-28T08:47:53.030Z,4.40
2017-03-28T08:48:58.529Z,5.07
2017-03-28T08:50:03.313Z,5.55
2017-03-28T08:51:09.829Z,4.52
2017-03-28T08:52:14.760Z,5.22
2017-03-28T08:53:19.486Z,5.18
2017-03-28T08:54:25.929Z,5.27
2017-03-28T08:55:30.773Z,4.90
2017-03-28T08:56:36.356Z,5.17
2017-03-28T08:57:41.869Z,5.68
2017-03-28T08:58:46.592Z,5.42
2017-03-28T08:59:52.093Z,5.42
2017-03-28T09:00:56.937Z,5.28
2017-03-28T09:02:02.396Z,5.35
2017-03-28T09:03:07.892Z,5.75
2017-03-28T09:04:12.732Z,5.83
2017-03-28T09:05:19.077Z,5.77
2017-03-28T09:06:23.978Z,6.32
2017-03-28T09:07:29.460Z,6.05
2017-03-28T09:08:34.946Z,5.85
2017-03-28T09:09:39.676Z,5.27
2017-03-28T09:10:46.128Z,6.00
2017-03-28T09:11:51.028Z,5.52
2017-03-28T09:12:57.350Z,5.67
2017-03-28T09:14:02.858Z,6.35
2017-03-28T09:15:07.714Z,6.62
2017-03-28T09:16:14.201Z,6.47
2017-03-28T09:17:18.825Z,5.15
2017-03-28T09:18:24.261Z,6.20
2017-03-28T09:19:29.069Z,5.48
2017-03-28T09:20:33.780Z,6.08
2017-03-28T09:21:39.396Z,5.47
2017-03-28T09:22:45.011Z,5.20
2017-03-28T09:23:50.618Z,5.85
2017-03-28T09:24:56.114Z,5.47
2017-03-28T09:26:01.709Z,5.87
2017-03-28T09:27:06.561Z,5.90
2017-03-28T09:28:12.059Z,5.60
2017-03-28T09:29:17.605Z,5.42
2017-03-28T09:30:22.321Z,5.62
2017-03-28T09:31:27.773Z,5.80
2017-03-28T09:32:32.716Z,5.88
2017-03-28T09:33:39.080Z,6.83
2017-03-28T09:34:43.984Z,6.18
2017-03-28T09:35:49.631Z,6.15
2017-03-28T09:36:55.028Z,5.43
2017-03-28T09:38:01.738Z,5.97
2017-03-28T09:39:07.401Z,6.42
2017-03-28T09:40:12.905Z,5.92
2017-03-28T09:41:17.684Z,6.45
2017-03-28T09:42:23.188Z,6.80
2017-03-28T09:43:28.897Z,5.52
2017-03-28T09:44:33.660Z,6.62
2017-03-28T09:45:39.204Z,6.13
2017-03-28T09:46:44.696Z,5.85
2017-03-28T09:47:50.213Z,6.18
2017-03-28T09:48:55.125Z,5.87
2017-03-28T09:50:01.461Z,6.13
2017-03-28T09:51:06.454Z,6.58
2017-03-28T09:52:12.059Z,6.30
2017-03-28T09:53:16.754Z,6.55
2017-03-28T09:54:23.140Z,6.55
2017-03-28T09:55:27.998Z,6.27
2017-03-28T09:56:33.646Z,6.32
2017-03-28T09:57:39.937Z,6.70
2017-03-28T09:58:45.291Z,7.17
2017-03-28T09:59:50.981Z,6.78
2017-03-28T10:00:57.350Z,7.10
2017-03-28T10:02:02.197Z,6.80
2017-03-28T10:03:08.405Z,7.32
2017-03-28T10:04:13.302Z,7.28
2017-03-28T10:05:18.828Z,7.32
2017-03-28T10:06:23.638Z,7.20
2017-03-28T10:07:29.181Z,7.35
2017-03-28T10:08:34.811Z,6.98
2017-03-28T10:09:40.513Z,7.10
2017-03-28T10:10:45.944Z,6.93
2017-03-28T10:11:51.459Z,7.35
2017-03-28T10:12:56.301Z,7.33
2017-03-28T10:14:01.809Z,7.67
2017-03-28T10:15:06.682Z,7.62
2017-03-28T10:16:12.417Z,6.83
2017-03-28T10:17:17.853Z,7.35
2017-03-28T10:18:22.529Z,7.88
2017-03-28T10:19:28.947Z,6.95
2017-03-28T10:20:34.000Z,7.40
2017-03-28T10:21:40.280Z,7.08
2017-03-28T10:22:46.028Z,7.50
2017-03-28T10:23:50.820Z,6.83
2017-03-28T10:24:56.418Z,6.57
2017-03-28T10:26:01.898Z,7.23
2017-03-28T10:27:08.165Z,6.72
2017-03-28T10:28:13.852Z,7.13
2017-03-28T10:29:19.512Z,7.37
2017-03-28T10:30:24.411Z,6.67
2017-03-28T10:31:29.149Z,6.77
2017-03-28T10:32:35.373Z,6.67
2017-03-28T10:33:40.861Z,7.95
2017-03-28T10:34:45.577Z,7.23
2017-03-28T10:35:51.181Z,6.63
2017-03-28T10:36:57.518Z,6.83
2017-03-28T10:38:04.136Z,6.88
2017-03-28T10:39:09.752Z,7.28
2017-03-28T10:40:14.552Z,7.28
2017-03-28T10:41:20.928Z,6.68
2017-03-28T10:42:25.704Z,6.92
2017-03-28T10:43:31.331Z,6.80
2017-03-28T10:44:36.108Z,6.62
2017-03-28T10:45:42.677Z,6.13
2017-03-28T10:46:47.604Z,6.10
2017-03-28T10:47:53.953Z,5.87
2017-03-28T10:48:59.868Z,7.13
2017-03-28T10:50:05.501Z,6.37
2017-03-28T10:51:11.337Z,5.95
2017-03-28T10:52:16.900Z,7.48
2017-03-28T10:53:22.616Z,7.35
2017-03-28T10:54:28.233Z,8.00
2017-03-28T10:55:32.953Z,6.98
2017-03-28T10:56:39.317Z,7.70
2017-03-28T10:57:44.917Z,6.80
2017-03-28T10:58:49.641Z,6.75
2017-03-28T10:59:55.169Z,6.67
2017-03-28T11:01:00.762Z,6.90
2017-03-28T11:02:06.368Z,7.37
2017-03-28T11:03:11.221Z,6.55
2017-03-28T11:04:16.733Z,6.90
2017-03-28T11:05:21.445Z,6.73
2017-03-28T11:06:27.068Z,6.65
2017-03-28T11:07:33.505Z,6.98
2017-03-28T11:08:39.033Z,6.85
2017-03-28T11:09:44.460Z,7.18
2017-03-28T11:10:50.165Z,6.85
2017-03-28T11:11:55.734Z,7.68
2017-03-28T11:13:00.525Z,6.75
2017-03-28T11:14:06.889Z,7.52
2017-03-28T11:15:12.617Z,7.45
2017-03-28T11:16:17.495Z,6.23
2017-03-28T11:17:22.939Z,8.02
2017-03-28T11:18:29.209Z,8.77
2017-03-28T11:19:34.785Z,7.97
2017-03-28T11:20:40.389Z,6.98
2017-03-28T11:21:45.265Z,7.50
2017-03-28T11:22:50.881Z,7.37
2017-03-28T11:23:55.533Z,7.05
2017-03-28T11:25:02.193Z,6.50
2017-03-28T11:26:06.889Z,6.87
2017-03-28T11:27:12.404Z,6.50
2017-03-28T11:28:18.693Z,7.70
2017-03-28T11:29:24.221Z,6.77
2017-03-28T11:30:28.977Z,6.92
2017-03-28T11:31:34.448Z,6.62
2017-03-28T11:32:40.127Z,7.82
2017-03-28T11:33:46.509Z,7.30
2017-03-28T11:34:51.489Z,7.40
2017-03-28T11:35:57.740Z,7.18
2017-03-28T11:37:02.608Z,6.60
2017-03-28T11:38:09.165Z,7.05
2017-03-28T11:39:13.937Z,6.40
2017-03-28T11:40:19.437Z,6.78
2017-03-28T11:41:24.905Z,6.20
2017-03-28T11:42:30.853Z,6.47
2017-03-28T11:43:36.638Z,6.75
2017-03-28T11:44:42.224Z,5.97
2017-03-28T11:45:47.086Z,6.20
2017-03-28T11:46:52.696Z,5.50
2017-03-28T11:47:59.054Z,6.55
2017-03-28T11:49:03.936Z,6.62
2017-03-28T11:50:09.509Z,7.25
2017-03-28T11:51:15.851Z,6.73
2017-03-28T11:52:20.626Z,6.80
2017-03-28T11:53:25.303Z,7.17
2017-03-28T11:54:31.668Z,6.87
2017-03-28T11:55:37.067Z,6.02
2017-03-28T11:56:42.673Z,6.37
2017-03-28T11:57:47.658Z,6.52
2017-03-28T11:58:54.215Z,6.77
2017-03-28T11:59:59.037Z,7.22
2017-03-28T12:01:05.418Z,6.53
2017-03-28T12:02:10.797Z,6.23
2017-03-28T12:03:15.621Z,6.53
2017-03-28T12:04:21.994Z,7.23
2017-03-28T12:05:27.649Z,6.50
2017-03-28T12:06:32.580Z,6.72
2017-03-28T12:07:38.876Z,6.45
2017-03-28T12:08:43.804Z,6.10
2017-03-28T12:09:49.365Z,6.07
2017-03-28T12:10:55.920Z,6.55
2017-03-28T12:12:01.425Z,6.83
2017-03-28T12:13:06.385Z,7.02
2017-03-28T12:14:12.017Z,6.42
2017-03-28T12:15:18.348Z,5.95
2017-03-28T12:16:24.265Z,5.20
2017-03-28T12:17:29.168Z,5.12
2017-03-28T12:18:34.727Z,5.00
2017-03-28T12:19:39.444Z,4.85
2017-03-28T12:20:44.276Z,5.20
2017-03-28T12:21:50.661Z,5.32
2017-03-28T12:22:56.428Z,5.13
2017-03-28T12:24:01.385Z,4.78
2017-03-28T12:25:06.937Z,4.90
2017-03-28T12:26:11.793Z,5.00
2017-03-28T12:27:17.535Z,4.85
2017-03-28T12:28:22.940Z,4.95
2017-03-28T12:29:28.388Z,4.95
2017-03-28T12:30:34.141Z,4.17
2017-03-28T12:31:39.652Z,4.42
2017-03-28T12:32:45.580Z,5.33
2017-03-28T12:33:51.121Z,4.73
2017-03-28T12:34:56.012Z,4.32
2017-03-28T12:36:01.572Z,5.10
2017-03-28T12:37:07.209Z,4.43
2017-03-28T12:38:14.580Z,4.13
2017-03-28T12:39:19.344Z,3.97
2017-03-28T12:40:24.925Z,3.80
2017-03-28T12:41:29.629Z,4.55
2017-03-28T12:42:35.180Z,4.80
2017-03-28T12:43:40.545Z,4.92
2017-03-28T12:44:46.117Z,4.30
2017-03-28T12:45:51.680Z,4.58
2017-03-28T12:46:57.356Z,4.50
2017-03-28T12:48:02.301Z,3.40
2017-03-28T12:49:07.826Z,3.52
2017-03-28T12:50:13.262Z,4.42
2017-03-28T12:51:18.961Z,3.85
2017-03-28T12:52:24.581Z,3.78
2017-03-28T12:53:29.380Z,4.38
2017-03-28T12:54:35.013Z,3.38
2017-03-28T12:55:39.761Z,3.68
2017-03-28T12:56:46.189Z,3.70
2017-03-28T12:57:51.041Z,3.47
2017-03-28T12:58:57.380Z,3.65
2017-03-28T13:00:02.501Z,3.42
2017-03-28T13:01:08.937Z,3.88
2017-03-28T13:02:14.480Z,3.95
2017-03-28T13:03:19.447Z,4.53
2017-03-28T13:04:24.917Z,4.23
2017-03-28T13:05:30.621Z,3.95
2017-03-28T13:06:36.852Z,4.37
2017-03-28T13:07:41.713Z,4.07
2017-03-28T13:08:47.357Z,4.38
2017-03-28T13:09:53.765Z,4.28
2017-03-28T13:10:59.384Z,4.68
2017-03-28T13:12:04.239Z,4.00
2017-03-28T13:13:09.728Z,4.28
2017-03-28T13:14:15.253Z,3.92
2017-03-28T13:15:21.004Z,4.37
2017-03-28T13:16:27.496Z,3.62
2017-03-28T13:17:33.367Z,3.82
2017-03-28T13:18:39.152Z,4.45
2017-03-28T13:19:44.005Z,4.45
2017-03-28T13:20:48.716Z,3.70
2017-03-28T13:21:54.321Z,4.13
2017-03-28T13:22:59.000Z,3.97
2017-03-28T13:24:04.504Z,4.58
2017-03-28T13:25:10.108Z,4.68
2017-03-28T13:26:15.068Z,3.90
2017-03-28T13:27:20.779Z,3.30
2017-03-28T13:28:26.989Z,4.05
2017-03-28T13:29:32.705Z,3.80
2017-03-28T13:30:38.457Z,3.97
2017-03-28T13:31:44.130Z,4.30
2017-03-28T13:32:49.749Z,4.43
2017-03-28T13:33:55.344Z,3.53
2017-03-28T13:35:01.097Z,3.90
2017-03-28T13:36:05.952Z,3.88
2017-03-28T13:37:11.563Z,3.85
2017-03-28T13:38:19.076Z,3.80
2017-03-28T13:39:23.874Z,3.75
2017-03-28T13:40:29.400Z,3.80
2017-03-28T13:41:35.019Z,4.17
2017-03-28T13:42:41.393Z,3.97
2017-03-28T13:43:46.309Z,4.33
2017-03-28T13:44:51.952Z,4.03
2017-03-28T13:45:57.562Z,4.47
2017-03-28T13:47:02.181Z,4.30
2017-03-28T13:48:07.704Z,5.35
2017-03-28T13:49:13.405Z,4.90
2017-03-28T13:50:18.948Z,4.65
2017-03-28T13:51:24.421Z,4.40
2017-03-28T13:52:30.830Z,3.50
2017-03-28T13:53:36.480Z,4.85
2017-03-28T13:54:42.131Z,4.23
2017-03-28T13:55:47.040Z,4.83
2017-03-28T13:56:53.450Z,4.02
2017-03-28T13:57:59.204Z,4.97
2017-03-28T13:59:04.021Z,4.82
2017-03-28T14:00:09.734Z,4.58
2017-03-28T14:01:15.341Z,4.67
2017-03-28T14:02:20.901Z,4.63
2017-03-28T14:03:26.492Z,5.42
2017-03-28T14:04:31.904Z,5.08
2017-03-28T14:05:36.829Z,5.80
2017-03-28T14:06:42.408Z,4.92
2017-03-28T14:07:48.873Z,4.33
2017-03-28T14:08:54.316Z,4.58
2017-03-28T14:09:59.269Z,4.73
2017-03-28T14:11:06.650Z,4.85
2017-03-28T14:12:11.557Z,4.45
2017-03-28T14:13:17.901Z,4.37
2017-03-28T14:14:22.713Z,4.68
2017-03-28T14:15:28.218Z,4.90
2017-03-28T14:16:33.880Z,4.28
2017-03-28T14:17:38.720Z,3.70
2017-03-28T14:18:44.209Z,4.20
2017-03-28T14:19:49.836Z,4.25
2017-03-28T14:20:55.549Z,4.88
2017-03-28T14:22:00.389Z,4.58
2017-03-28T14:23:06.708Z,3.98
2017-03-28T14:24:11.605Z,5.43
2017-03-28T14:25:17.104Z,5.05
2017-03-28T14:26:23.461Z,4.93
2017-03-28T14:27:29.346Z,4.57
2017-03-28T14:28:34.016Z,4.42
2017-03-28T14:29:39.496Z,4.43
2017-03-28T14:30:45.114Z,5.23
2017-03-28T14:31:50.829Z,5.00
2017-03-28T14:32:55.805Z,4.30